sensor_id;sensor_type;location;lat;lon;timestamp;P1;durP1;ratioP1;P2;durP2;ratioP2
20711;SDS011;10517;50.742;4.224;2023-11-21T00:01:57;7.90;;;3.80;;
20711;SDS011;10517;50.742;4.224;2023-11-21T00:04:23;6.87;;;3.60;;
20711;SDS011;10517;50.742;4.224;2023-11-21T00:06:49;4.80;;;2.67;;
20711;SDS011;10517;50.742;4.224;2023-11-21T00:09:15;6.82;;;3.28;;
20711;SDS011;10517;50.742;4.224;2023-11-21T00:11:42;6.65;;;3.22;;
20711;SDS011;10517;50.742;4.224;2023-11-21T00:14:09;8.07;;;4.10;;
20711;SDS011;10517;50.742;4.224;2023-11-21T00:16:36;5.40;;;2.83;;
20711;SDS011;10517;50.742;4.224;2023-11-21T00:19:01;7.88;;;3.95;;
20711;SDS011;10517;50.742;4.224;2023-11-21T00:21:28;5.20;;;3.00;;
20711;SDS011;10517;50.742;4.224;2023-11-21T00:23:54;7.70;;;3.20;;
20711;SDS011;10517;50.742;4.224;2023-11-21T00:26:19;10.00;;;3.45;;
20711;SDS011;10517;50.742;4.224;2023-11-21T00:28:45;6.07;;;2.57;;
20711;SDS011;10517;50.742;4.224;2023-11-21T00:31:10;8.50;;;3.07;;
20711;SDS011;10517;50.742;4.224;2023-11-21T00:33:36;5.47;;;3.10;;
20711;SDS011;10517;50.742;4.224;2023-11-21T00:36:02;7.03;;;3.05;;
20711;SDS011;10517;50.742;4.224;2023-11-21T00:38:29;3.13;;;2.20;;
20711;SDS011;10517;50.742;4.224;2023-11-21T00:40:55;6.22;;;2.22;;
20711;SDS011;10517;50.742;4.224;2023-11-21T00:43:24;6.17;;;2.93;;
20711;SDS011;10517;50.742;4.224;2023-11-21T00:45:49;5.67;;;1.90;;
20711;SDS011;10517;50.742;4.224;2023-11-21T00:48:16;10.77;;;4.17;;
20711;SDS011;10517;50.742;4.224;2023-11-21T00:50:42;8.27;;;3.30;;
20711;SDS011;10517;50.742;4.224;2023-11-21T00:53:08;18.03;;;3.23;;
20711;SDS011;10517;50.742;4.224;2023-11-21T00:55:34;6.33;;;2.87;;
20711;SDS011;10517;50.742;4.224;2023-11-21T00:58:00;6.97;;;3.83;;
20711;SDS011;10517;50.742;4.224;2023-11-21T01:00:28;5.80;;;2.47;;
20711;SDS011;10517;50.742;4.224;2023-11-21T01:02:54;6.47;;;3.30;;
20711;SDS011;10517;50.742;4.224;2023-11-21T01:05:20;4.73;;;2.97;;
20711;SDS011;10517;50.742;4.224;2023-11-21T01:07:46;4.97;;;2.97;;
20711;SDS011;10517;50.742;4.224;2023-11-21T01:10:11;7.73;;;3.30;;
20711;SDS011;10517;50.742;4.224;2023-11-21T01:12:37;7.60;;;3.47;;
20711;SDS011;10517;50.742;4.224;2023-11-21T01:15:07;7.20;;;2.27;;
20711;SDS011;10517;50.742;4.224;2023-11-21T01:17:33;9.70;;;3.57;;
20711;SDS011;10517;50.742;4.224;2023-11-21T01:19:59;5.13;;;2.57;;
20711;SDS011;10517;50.742;4.224;2023-11-21T01:22:25;4.40;;;3.07;;
20711;SDS011;10517;50.742;4.224;2023-11-21T01:24:52;8.13;;;3.53;;
20711;SDS011;10517;50.742;4.224;2023-11-21T01:27:18;9.90;;;3.47;;
20711;SDS011;10517;50.742;4.224;2023-11-21T01:29:44;9.17;;;4.40;;
20711;SDS011;10517;50.742;4.224;2023-11-21T01:32:10;4.90;;;2.57;;
20711;SDS011;10517;50.742;4.224;2023-11-21T01:34:35;7.30;;;3.93;;
20711;SDS011;10517;50.742;4.224;2023-11-21T01:37:02;11.33;;;4.00;;
20711;SDS011;10517;50.742;4.224;2023-11-21T01:39:29;8.27;;;3.37;;
20711;SDS011;10517;50.742;4.224;2023-11-21T01:41:55;7.87;;;3.73;;
20711;SDS011;10517;50.742;4.224;2023-11-21T01:44:23;10.07;;;4.03;;
20711;SDS011;10517;50.742;4.224;2023-11-21T01:46:49;10.13;;;3.83;;
20711;SDS011;10517;50.742;4.224;2023-11-21T01:49:15;10.27;;;4.53;;
20711;SDS011;10517;50.742;4.224;2023-11-21T01:51:43;7.67;;;3.20;;
20711;SDS011;10517;50.742;4.224;2023-11-21T01:54:10;11.30;;;5.00;;
20711;SDS011;10517;50.742;4.224;2023-11-21T01:56:36;6.77;;;3.00;;
20711;SDS011;10517;50.742;4.224;2023-11-21T01:59:02;9.80;;;4.32;;
20711;SDS011;10517;50.742;4.224;2023-11-21T02:01:28;8.63;;;4.15;;
20711;SDS011;10517;50.742;4.224;2023-11-21T02:03:54;9.37;;;4.10;;
20711;SDS011;10517;50.742;4.224;2023-11-21T02:06:20;7.73;;;3.87;;
20711;SDS011;10517;50.742;4.224;2023-11-21T02:08:47;8.27;;;4.22;;
20711;SDS011;10517;50.742;4.224;2023-11-21T02:11:12;8.97;;;3.30;;
20711;SDS011;10517;50.742;4.224;2023-11-21T02:13:38;9.65;;;3.55;;
20711;SDS011;10517;50.742;4.224;2023-11-21T02:16:08;7.53;;;3.53;;
20711;SDS011;10517;50.742;4.224;2023-11-21T02:18:35;11.00;;;3.90;;
20711;SDS011;10517;50.742;4.224;2023-11-21T02:21:03;7.75;;;4.22;;
20711;SDS011;10517;50.742;4.224;2023-11-21T02:23:29;12.55;;;3.83;;
20711;SDS011;10517;50.742;4.224;2023-11-21T02:25:55;11.70;;;4.07;;
20711;SDS011;10517;50.742;4.224;2023-11-21T02:28:21;9.48;;;4.07;;
20711;SDS011;10517;50.742;4.224;2023-11-21T02:30:53;9.95;;;4.05;;
20711;SDS011;10517;50.742;4.224;2023-11-21T02:33:21;7.05;;;3.03;;
20711;SDS011;10517;50.742;4.224;2023-11-21T02:35:47;12.02;;;4.80;;
20711;SDS011;10517;50.742;4.224;2023-11-21T02:38:13;6.20;;;3.72;;
20711;SDS011;10517;50.742;4.224;2023-11-21T02:40:40;8.95;;;4.50;;
20711;SDS011;10517;50.742;4.224;2023-11-21T02:43:07;6.10;;;3.55;;
20711;SDS011;10517;50.742;4.224;2023-11-21T02:45:32;10.00;;;4.53;;
20711;SDS011;10517;50.742;4.224;2023-11-21T02:47:58;8.02;;;3.95;;
20711;SDS011;10517;50.742;4.224;2023-11-21T02:50:24;8.55;;;4.70;;
20711;SDS011;10517;50.742;4.224;2023-11-21T02:52:49;9.68;;;4.32;;
20711;SDS011;10517;50.742;4.224;2023-11-21T02:55:16;7.20;;;4.07;;
20711;SDS011;10517;50.742;4.224;2023-11-21T02:57:41;10.90;;;4.15;;
20711;SDS011;10517;50.742;4.224;2023-11-21T03:00:07;10.40;;;5.30;;
20711;SDS011;10517;50.742;4.224;2023-11-21T03:02:35;11.18;;;4.55;;
20711;SDS011;10517;50.742;4.224;2023-11-21T03:05:03;12.98;;;4.50;;
20711;SDS011;10517;50.742;4.224;2023-11-21T03:07:30;6.22;;;4.10;;
20711;SDS011;10517;50.742;4.224;2023-11-21T03:09:56;8.30;;;4.43;;
20711;SDS011;10517;50.742;4.224;2023-11-21T03:12:21;10.98;;;4.60;;
20711;SDS011;10517;50.742;4.224;2023-11-21T03:14:47;9.10;;;3.72;;
20711;SDS011;10517;50.742;4.224;2023-11-21T03:17:12;11.35;;;4.28;;
20711;SDS011;10517;50.742;4.224;2023-11-21T03:19:41;13.32;;;5.60;;
20711;SDS011;10517;50.742;4.224;2023-11-21T03:22:06;10.68;;;3.50;;
20711;SDS011;10517;50.742;4.224;2023-11-21T03:24:33;8.52;;;3.97;;
20711;SDS011;10517;50.742;4.224;2023-11-21T03:26:59;9.07;;;4.32;;
20711;SDS011;10517;50.742;4.224;2023-11-21T03:29:25;12.10;;;4.60;;
20711;SDS011;10517;50.742;4.224;2023-11-21T03:31:51;10.10;;;4.88;;
20711;SDS011;10517;50.742;4.224;2023-11-21T03:34:26;10.52;;;4.45;;
20711;SDS011;10517;50.742;4.224;2023-11-21T03:36:52;10.30;;;3.90;;
20711;SDS011;10517;50.742;4.224;2023-11-21T03:39:21;8.63;;;4.07;;
20711;SDS011;10517;50.742;4.224;2023-11-21T03:41:47;11.90;;;4.85;;
20711;SDS011;10517;50.742;4.224;2023-11-21T03:44:13;9.18;;;5.03;;
20711;SDS011;10517;50.742;4.224;2023-11-21T03:46:39;10.73;;;5.05;;
20711;SDS011;10517;50.742;4.224;2023-11-21T03:49:05;6.17;;;3.50;;
20711;SDS011;10517;50.742;4.224;2023-11-21T03:51:30;8.70;;;4.05;;
20711;SDS011;10517;50.742;4.224;2023-11-21T03:53:56;9.00;;;3.75;;
20711;SDS011;10517;50.742;4.224;2023-11-21T03:56:22;8.70;;;4.15;;
20711;SDS011;10517;50.742;4.224;2023-11-21T03:58:48;6.97;;;3.67;;
20711;SDS011;10517;50.742;4.224;2023-11-21T04:01:20;7.72;;;3.95;;
20711;SDS011;10517;50.742;4.224;2023-11-21T04:03:46;9.05;;;4.85;;
20711;SDS011;10517;50.742;4.224;2023-11-21T04:06:12;10.48;;;5.20;;
20711;SDS011;10517;50.742;4.224;2023-11-21T04:08:38;5.43;;;3.88;;
20711;SDS011;10517;50.742;4.224;2023-11-21T04:11:03;6.15;;;3.50;;
20711;SDS011;10517;50.742;4.224;2023-11-21T04:13:29;22.23;;;4.80;;
20711;SDS011;10517;50.742;4.224;2023-11-21T04:15:55;6.45;;;3.97;;
20711;SDS011;10517;50.742;4.224;2023-11-21T04:18:21;8.63;;;4.55;;
20711;SDS011;10517;50.742;4.224;2023-11-21T04:20:48;8.52;;;5.38;;
20711;SDS011;10517;50.742;4.224;2023-11-21T04:23:14;6.20;;;3.83;;
20711;SDS011;10517;50.742;4.224;2023-11-21T04:25:40;13.73;;;5.07;;
20711;SDS011;10517;50.742;4.224;2023-11-21T04:28:05;10.80;;;4.78;;
20711;SDS011;10517;50.742;4.224;2023-11-21T04:30:31;10.95;;;3.45;;
20711;SDS011;10517;50.742;4.224;2023-11-21T04:32:58;11.15;;;5.13;;
20711;SDS011;10517;50.742;4.224;2023-11-21T04:35:23;8.88;;;4.63;;
20711;SDS011;10517;50.742;4.224;2023-11-21T04:37:49;9.38;;;5.75;;
20711;SDS011;10517;50.742;4.224;2023-11-21T04:40:16;14.02;;;4.82;;
20711;SDS011;10517;50.742;4.224;2023-11-21T04:42:41;8.73;;;4.75;;
20711;SDS011;10517;50.742;4.224;2023-11-21T04:45:07;6.50;;;4.03;;
20711;SDS011;10517;50.742;4.224;2023-11-21T04:47:34;13.10;;;5.78;;
20711;SDS011;10517;50.742;4.224;2023-11-21T04:50:01;6.53;;;4.87;;
20711;SDS011;10517;50.742;4.224;2023-11-21T04:52:28;10.75;;;5.22;;
20711;SDS011;10517;50.742;4.224;2023-11-21T04:54:53;13.02;;;4.03;;
20711;SDS011;10517;50.742;4.224;2023-11-21T04:57:20;13.32;;;4.72;;
20711;SDS011;10517;50.742;4.224;2023-11-21T04:59:46;7.68;;;4.55;;
20711;SDS011;10517;50.742;4.224;2023-11-21T05:02:13;11.90;;;5.03;;
20711;SDS011;10517;50.742;4.224;2023-11-21T05:04:39;10.75;;;4.63;;
20711;SDS011;10517;50.742;4.224;2023-11-21T05:07:05;7.80;;;4.15;;
20711;SDS011;10517;50.742;4.224;2023-11-21T05:09:30;7.65;;;4.68;;
20711;SDS011;10517;50.742;4.224;2023-11-21T05:11:57;11.48;;;4.72;;
20711;SDS011;10517;50.742;4.224;2023-11-21T05:14:23;12.45;;;4.50;;
20711;SDS011;10517;50.742;4.224;2023-11-21T05:16:48;9.82;;;4.22;;
20711;SDS011;10517;50.742;4.224;2023-11-21T05:19:16;7.95;;;4.40;;
20711;SDS011;10517;50.742;4.224;2023-11-21T05:21:41;10.07;;;4.13;;
20711;SDS011;10517;50.742;4.224;2023-11-21T05:24:07;8.65;;;4.53;;
20711;SDS011;10517;50.742;4.224;2023-11-21T05:26:33;7.53;;;4.57;;
20711;SDS011;10517;50.742;4.224;2023-11-21T05:28:58;8.43;;;4.22;;
20711;SDS011;10517;50.742;4.224;2023-11-21T05:31:24;9.82;;;4.70;;
20711;SDS011;10517;50.742;4.224;2023-11-21T05:33:49;7.43;;;3.90;;
20711;SDS011;10517;50.742;4.224;2023-11-21T05:36:15;7.00;;;4.15;;
20711;SDS011;10517;50.742;4.224;2023-11-21T05:38:41;7.13;;;3.53;;
20711;SDS011;10517;50.742;4.224;2023-11-21T05:41:06;9.43;;;3.90;;
20711;SDS011;10517;50.742;4.224;2023-11-21T05:43:33;6.90;;;4.13;;
20711;SDS011;10517;50.742;4.224;2023-11-21T05:46:00;8.82;;;4.60;;
20711;SDS011;10517;50.742;4.224;2023-11-21T05:48:26;10.85;;;4.07;;
20711;SDS011;10517;50.742;4.224;2023-11-21T05:50:52;7.25;;;4.10;;
20711;SDS011;10517;50.742;4.224;2023-11-21T05:53:17;6.88;;;4.68;;
20711;SDS011;10517;50.742;4.224;2023-11-21T05:55:43;8.03;;;3.20;;
20711;SDS011;10517;50.742;4.224;2023-11-21T05:58:09;5.72;;;3.60;;
20711;SDS011;10517;50.742;4.224;2023-11-21T06:00:34;8.55;;;3.92;;
20711;SDS011;10517;50.742;4.224;2023-11-21T06:03:01;5.50;;;2.92;;
20711;SDS011;10517;50.742;4.224;2023-11-21T06:05:26;13.05;;;4.22;;
20711;SDS011;10517;50.742;4.224;2023-11-21T06:07:53;9.00;;;4.97;;
20711;SDS011;10517;50.742;4.224;2023-11-21T06:10:20;7.70;;;3.60;;
20711;SDS011;10517;50.742;4.224;2023-11-21T06:12:46;11.43;;;4.85;;
20711;SDS011;10517;50.742;4.224;2023-11-21T06:15:12;8.48;;;4.22;;
20711;SDS011;10517;50.742;4.224;2023-11-21T06:17:44;11.50;;;3.78;;
20711;SDS011;10517;50.742;4.224;2023-11-21T06:20:14;6.55;;;3.58;;
20711;SDS011;10517;50.742;4.224;2023-11-21T06:22:44;12.40;;;4.65;;
20711;SDS011;10517;50.742;4.224;2023-11-21T06:25:13;8.30;;;3.58;;
20711;SDS011;10517;50.742;4.224;2023-11-21T06:27:40;7.65;;;4.53;;
20711;SDS011;10517;50.742;4.224;2023-11-21T06:30:07;7.10;;;3.63;;
20711;SDS011;10517;50.742;4.224;2023-11-21T06:32:34;8.45;;;3.85;;
20711;SDS011;10517;50.742;4.224;2023-11-21T06:35:01;16.10;;;4.85;;
20711;SDS011;10517;50.742;4.224;2023-11-21T06:37:29;7.80;;;3.33;;
20711;SDS011;10517;50.742;4.224;2023-11-21T06:39:54;15.15;;;4.28;;
20711;SDS011;10517;50.742;4.224;2023-11-21T06:42:21;10.15;;;4.40;;
20711;SDS011;10517;50.742;4.224;2023-11-21T06:44:48;7.68;;;3.75;;
20711;SDS011;10517;50.742;4.224;2023-11-21T06:47:16;8.73;;;4.32;;
20711;SDS011;10517;50.742;4.224;2023-11-21T06:49:43;8.63;;;4.43;;
20711;SDS011;10517;50.742;4.224;2023-11-21T06:52:08;7.43;;;3.63;;
20711;SDS011;10517;50.742;4.224;2023-11-21T06:54:34;7.88;;;4.28;;
20711;SDS011;10517;50.742;4.224;2023-11-21T06:57:01;9.65;;;3.83;;
20711;SDS011;10517;50.742;4.224;2023-11-21T06:59:30;9.63;;;3.75;;
20711;SDS011;10517;50.742;4.224;2023-11-21T07:01:56;6.40;;;3.55;;
20711;SDS011;10517;50.742;4.224;2023-11-21T07:04:22;6.55;;;3.88;;
20711;SDS011;10517;50.742;4.224;2023-11-21T07:06:50;10.65;;;4.05;;
20711;SDS011;10517;50.742;4.224;2023-11-21T07:09:19;6.78;;;4.15;;
20711;SDS011;10517;50.742;4.224;2023-11-21T07:11:48;6.95;;;3.75;;
20711;SDS011;10517;50.742;4.224;2023-11-21T07:14:14;9.82;;;4.05;;
20711;SDS011;10517;50.742;4.224;2023-11-21T07:16:42;7.22;;;4.07;;
20711;SDS011;10517;50.742;4.224;2023-11-21T07:19:07;6.43;;;4.50;;
20711;SDS011;10517;50.742;4.224;2023-11-21T07:21:33;7.72;;;4.35;;
20711;SDS011;10517;50.742;4.224;2023-11-21T07:24:00;9.25;;;4.70;;
20711;SDS011;10517;50.742;4.224;2023-11-21T07:26:27;8.60;;;4.05;;
20711;SDS011;10517;50.742;4.224;2023-11-21T07:28:53;10.68;;;5.70;;
20711;SDS011;10517;50.742;4.224;2023-11-21T07:31:19;8.85;;;4.20;;
20711;SDS011;10517;50.742;4.224;2023-11-21T07:33:46;9.88;;;4.13;;
20711;SDS011;10517;50.742;4.224;2023-11-21T07:36:12;12.55;;;4.82;;
20711;SDS011;10517;50.742;4.224;2023-11-21T07:38:39;9.88;;;4.65;;
20711;SDS011;10517;50.742;4.224;2023-11-21T07:41:05;13.10;;;5.05;;
20711;SDS011;10517;50.742;4.224;2023-11-21T07:43:33;12.13;;;4.57;;
20711;SDS011;10517;50.742;4.224;2023-11-21T07:46:02;11.93;;;5.25;;
20711;SDS011;10517;50.742;4.224;2023-11-21T07:48:31;10.55;;;5.53;;
20711;SDS011;10517;50.742;4.224;2023-11-21T07:50:58;15.45;;;6.30;;
20711;SDS011;10517;50.742;4.224;2023-11-21T07:53:26;7.22;;;4.53;;
20711;SDS011;10517;50.742;4.224;2023-11-21T07:55:55;9.25;;;4.10;;
20711;SDS011;10517;50.742;4.224;2023-11-21T07:58:30;9.13;;;5.22;;
20711;SDS011;10517;50.742;4.224;2023-11-21T08:00:58;11.90;;;4.78;;
20711;SDS011;10517;50.742;4.224;2023-11-21T08:03:24;12.52;;;5.25;;
20711;SDS011;10517;50.742;4.224;2023-11-21T08:05:51;7.22;;;4.15;;
20711;SDS011;10517;50.742;4.224;2023-11-21T08:08:17;12.13;;;4.88;;
20711;SDS011;10517;50.742;4.224;2023-11-21T08:10:43;18.80;;;5.13;;
20711;SDS011;10517;50.742;4.224;2023-11-21T08:13:21;9.98;;;4.78;;
20711;SDS011;10517;50.742;4.224;2023-11-21T08:15:58;9.98;;;6.47;;
20711;SDS011;10517;50.742;4.224;2023-11-21T08:18:27;13.63;;;4.93;;
20711;SDS011;10517;50.742;4.224;2023-11-21T08:20:54;11.32;;;5.07;;
20711;SDS011;10517;50.742;4.224;2023-11-21T08:23:20;16.35;;;5.57;;
20711;SDS011;10517;50.742;4.224;2023-11-21T08:25:46;14.43;;;5.60;;
20711;SDS011;10517;50.742;4.224;2023-11-21T08:28:12;15.05;;;6.45;;
20711;SDS011;10517;50.742;4.224;2023-11-21T08:30:41;18.55;;;5.93;;
20711;SDS011;10517;50.742;4.224;2023-11-21T08:33:07;21.98;;;5.82;;
20711;SDS011;10517;50.742;4.224;2023-11-21T08:35:33;13.43;;;5.63;;
20711;SDS011;10517;50.742;4.224;2023-11-21T08:38:00;11.57;;;5.25;;
20711;SDS011;10517;50.742;4.224;2023-11-21T08:40:25;18.42;;;5.38;;
20711;SDS011;10517;50.742;4.224;2023-11-21T08:42:51;18.15;;;6.72;;
20711;SDS011;10517;50.742;4.224;2023-11-21T08:45:18;14.70;;;7.18;;
20711;SDS011;10517;50.742;4.224;2023-11-21T08:47:44;24.75;;;5.53;;
20711;SDS011;10517;50.742;4.224;2023-11-21T08:50:11;13.85;;;5.35;;
20711;SDS011;10517;50.742;4.224;2023-11-21T08:52:37;19.33;;;7.07;;
20711;SDS011;10517;50.742;4.224;2023-11-21T08:55:04;13.50;;;6.43;;
20711;SDS011;10517;50.742;4.224;2023-11-21T08:57:35;18.10;;;7.13;;
20711;SDS011;10517;50.742;4.224;2023-11-21T09:00:05;15.38;;;6.30;;
20711;SDS011;10517;50.742;4.224;2023-11-21T09:02:35;18.95;;;6.72;;
20711;SDS011;10517;50.742;4.224;2023-11-21T09:05:02;12.52;;;5.85;;
20711;SDS011;10517;50.742;4.224;2023-11-21T09:07:29;12.65;;;5.85;;
20711;SDS011;10517;50.742;4.224;2023-11-21T09:09:55;16.70;;;5.55;;
20711;SDS011;10517;50.742;4.224;2023-11-21T09:12:20;18.73;;;6.65;;
20711;SDS011;10517;50.742;4.224;2023-11-21T09:14:46;16.05;;;7.20;;
20711;SDS011;10517;50.742;4.224;2023-11-21T09:17:12;12.27;;;6.78;;
20711;SDS011;10517;50.742;4.224;2023-11-21T09:19:39;12.15;;;7.75;;
20711;SDS011;10517;50.742;4.224;2023-11-21T09:22:06;17.65;;;7.30;;
20711;SDS011;10517;50.742;4.224;2023-11-21T09:24:35;18.77;;;6.38;;
20711;SDS011;10517;50.742;4.224;2023-11-21T09:27:00;11.52;;;4.95;;
20711;SDS011;10517;50.742;4.224;2023-11-21T09:29:26;19.55;;;7.43;;
20711;SDS011;10517;50.742;4.224;2023-11-21T09:31:52;17.88;;;5.38;;
20711;SDS011;10517;50.742;4.224;2023-11-21T09:34:19;14.02;;;5.93;;
20711;SDS011;10517;50.742;4.224;2023-11-21T09:36:46;17.45;;;7.50;;
20711;SDS011;10517;50.742;4.224;2023-11-21T09:39:12;17.90;;;6.78;;
20711;SDS011;10517;50.742;4.224;2023-11-21T09:41:42;11.75;;;5.72;;
20711;SDS011;10517;50.742;4.224;2023-11-21T09:44:16;11.70;;;5.78;;
20711;SDS011;10517;50.742;4.224;2023-11-21T09:46:43;11.23;;;5.20;;
20711;SDS011;10517;50.742;4.224;2023-11-21T09:49:13;10.90;;;5.15;;
20711;SDS011;10517;50.742;4.224;2023-11-21T09:51:41;11.73;;;4.95;;
20711;SDS011;10517;50.742;4.224;2023-11-21T09:54:08;29.52;;;5.97;;
20711;SDS011;10517;50.742;4.224;2023-11-21T09:56:37;13.85;;;5.80;;
20711;SDS011;10517;50.742;4.224;2023-11-21T09:59:03;13.45;;;5.35;;
20711;SDS011;10517;50.742;4.224;2023-11-21T10:01:32;9.30;;;4.60;;
20711;SDS011;10517;50.742;4.224;2023-11-21T10:04:00;13.30;;;4.30;;
20711;SDS011;10517;50.742;4.224;2023-11-21T10:06:26;13.38;;;6.05;;
20711;SDS011;10517;50.742;4.224;2023-11-21T10:08:54;14.52;;;4.20;;
20711;SDS011;10517;50.742;4.224;2023-11-21T10:11:22;10.65;;;5.13;;
20711;SDS011;10517;50.742;4.224;2023-11-21T10:13:52;15.32;;;5.10;;
20711;SDS011;10517;50.742;4.224;2023-11-21T10:16:19;11.30;;;5.20;;
20711;SDS011;10517;50.742;4.224;2023-11-21T10:18:47;8.77;;;4.75;;
20711;SDS011;10517;50.742;4.224;2023-11-21T10:21:17;9.43;;;4.28;;
20711;SDS011;10517;50.742;4.224;2023-11-21T10:23:43;10.10;;;5.07;;
20711;SDS011;10517;50.742;4.224;2023-11-21T10:26:10;10.93;;;4.28;;
20711;SDS011;10517;50.742;4.224;2023-11-21T10:28:41;7.97;;;3.88;;
20711;SDS011;10517;50.742;4.224;2023-11-21T10:31:21;8.30;;;4.60;;
20711;SDS011;10517;50.742;4.224;2023-11-21T10:33:46;10.32;;;4.32;;
20711;SDS011;10517;50.742;4.224;2023-11-21T10:36:12;8.48;;;4.13;;
20711;SDS011;10517;50.742;4.224;2023-11-21T10:38:42;11.82;;;4.15;;
20711;SDS011;10517;50.742;4.224;2023-11-21T10:41:10;7.00;;;3.72;;
20711;SDS011;10517;50.742;4.224;2023-11-21T10:43:40;6.60;;;4.03;;
20711;SDS011;10517;50.742;4.224;2023-11-21T10:46:06;10.73;;;4.20;;
20711;SDS011;10517;50.742;4.224;2023-11-21T10:48:32;13.65;;;4.53;;
20711;SDS011;10517;50.742;4.224;2023-11-21T10:51:00;6.38;;;3.17;;
20711;SDS011;10517;50.742;4.224;2023-11-21T10:53:38;11.30;;;4.18;;
20711;SDS011;10517;50.742;4.224;2023-11-21T10:56:08;8.38;;;4.70;;
20711;SDS011;10517;50.742;4.224;2023-11-21T10:58:35;9.25;;;4.47;;
20711;SDS011;10517;50.742;4.224;2023-11-21T11:01:03;10.93;;;4.88;;
20711;SDS011;10517;50.742;4.224;2023-11-21T11:03:32;9.60;;;5.05;;
20711;SDS011;10517;50.742;4.224;2023-11-21T11:05:59;10.25;;;5.05;;
20711;SDS011;10517;50.742;4.224;2023-11-21T11:08:26;10.43;;;4.95;;
20711;SDS011;10517;50.742;4.224;2023-11-21T11:10:52;8.75;;;5.28;;
20711;SDS011;10517;50.742;4.224;2023-11-21T11:13:18;9.13;;;4.97;;
20711;SDS011;10517;50.742;4.224;2023-11-21T11:15:47;9.13;;;4.50;;
20711;SDS011;10517;50.742;4.224;2023-11-21T11:18:13;9.90;;;4.13;;
20711;SDS011;10517;50.742;4.224;2023-11-21T11:20:40;8.38;;;4.38;;
20711;SDS011;10517;50.742;4.224;2023-11-21T11:26:02;9.73;;;4.22;;
20711;SDS011;10517;50.742;4.224;2023-11-21T11:31:25;9.27;;;4.18;;
20711;SDS011;10517;50.742;4.224;2023-11-21T11:33:59;10.27;;;3.80;;
20711;SDS011;10517;50.742;4.224;2023-11-21T11:36:48;7.13;;;4.15;;
20711;SDS011;10517;50.742;4.224;2023-11-21T11:39:28;6.93;;;4.13;;
20711;SDS011;10517;50.742;4.224;2023-11-21T11:41:57;11.05;;;4.00;;
20711;SDS011;10517;50.742;4.224;2023-11-21T11:47:26;9.45;;;3.97;;
20711;SDS011;10517;50.742;4.224;2023-11-21T11:50:10;6.68;;;3.10;;
20711;SDS011;10517;50.742;4.224;2023-11-21T11:55:12;6.82;;;4.22;;
20711;SDS011;10517;50.742;4.224;2023-11-21T11:57:41;5.85;;;3.47;;
20711;SDS011;10517;50.742;4.224;2023-11-21T12:02:39;9.88;;;3.47;;
20711;SDS011;10517;50.742;4.224;2023-11-21T12:05:09;5.95;;;3.08;;
20711;SDS011;10517;50.742;4.224;2023-11-21T12:07:51;6.47;;;3.03;;
20711;SDS011;10517;50.742;4.224;2023-11-21T12:10:19;9.68;;;2.88;;
20711;SDS011;10517;50.742;4.224;2023-11-21T12:12:49;3.90;;;3.10;;
20711;SDS011;10517;50.742;4.224;2023-11-21T12:15:17;7.22;;;2.55;;
20711;SDS011;10517;50.742;4.224;2023-11-21T12:17:44;4.20;;;2.38;;
20711;SDS011;10517;50.742;4.224;2023-11-21T12:20:13;4.65;;;2.60;;
20711;SDS011;10517;50.742;4.224;2023-11-21T12:25:15;4.28;;;2.83;;
20711;SDS011;10517;50.742;4.224;2023-11-21T12:27:53;4.10;;;2.70;;
20711;SDS011;10517;50.742;4.224;2023-11-21T12:30:19;8.65;;;2.00;;
20711;SDS011;10517;50.742;4.224;2023-11-21T12:32:53;3.88;;;2.70;;
20711;SDS011;10517;50.742;4.224;2023-11-21T12:35:21;8.18;;;2.97;;
20711;SDS011;10517;50.742;4.224;2023-11-21T12:37:49;4.63;;;3.00;;
20711;SDS011;10517;50.742;4.224;2023-11-21T12:40:16;3.45;;;2.10;;
20711;SDS011;10517;50.742;4.224;2023-11-21T12:42:42;14.05;;;2.13;;
20711;SDS011;10517;50.742;4.224;2023-11-21T12:45:10;2.78;;;1.85;;
20711;SDS011;10517;50.742;4.224;2023-11-21T12:47:45;2.95;;;1.73;;
20711;SDS011;10517;50.742;4.224;2023-11-21T12:50:20;2.60;;;1.60;;
20711;SDS011;10517;50.742;4.224;2023-11-21T12:52:49;1.75;;;1.23;;
20711;SDS011;10517;50.742;4.224;2023-11-21T12:55:19;9.18;;;2.38;;
20711;SDS011;10517;50.742;4.224;2023-11-21T12:57:49;4.22;;;1.58;;
20711;SDS011;10517;50.742;4.224;2023-11-21T13:00:56;1.80;;;1.30;;
20711;SDS011;10517;50.742;4.224;2023-11-21T13:03:17;2.40;;;1.42;;
20711;SDS011;10517;50.742;4.224;2023-11-21T13:05:50;3.53;;;1.75;;
20711;SDS011;10517;50.742;4.224;2023-11-21T13:08:19;1.55;;;1.10;;
20711;SDS011;10517;50.742;4.224;2023-11-21T13:10:48;2.40;;;1.55;;
20711;SDS011;10517;50.742;4.224;2023-11-21T13:13:16;1.77;;;1.50;;
20711;SDS011;10517;50.742;4.224;2023-11-21T13:15:51;1.67;;;1.20;;
20711;SDS011;10517;50.742;4.224;2023-11-21T13:18:19;2.88;;;1.58;;
20711;SDS011;10517;50.742;4.224;2023-11-21T13:20:46;2.97;;;1.73;;
20711;SDS011;10517;50.742;4.224;2023-11-21T13:23:12;7.15;;;1.92;;
20711;SDS011;10517;50.742;4.224;2023-11-21T13:25:39;14.13;;;1.67;;
20711;SDS011;10517;50.742;4.224;2023-11-21T13:28:07;1.27;;;0.90;;
20711;SDS011;10517;50.742;4.224;2023-11-21T13:30:34;2.83;;;1.58;;
20711;SDS011;10517;50.742;4.224;2023-11-21T13:33:01;2.28;;;1.10;;
20711;SDS011;10517;50.742;4.224;2023-11-21T13:35:36;1.88;;;1.10;;
20711;SDS011;10517;50.742;4.224;2023-11-21T13:38:10;3.17;;;1.95;;
20711;SDS011;10517;50.742;4.224;2023-11-21T13:40:38;2.80;;;1.55;;
20711;SDS011;10517;50.742;4.224;2023-11-21T13:43:17;3.55;;;2.13;;
20711;SDS011;10517;50.742;4.224;2023-11-21T13:45:44;3.55;;;1.55;;
20711;SDS011;10517;50.742;4.224;2023-11-21T13:48:11;1.73;;;1.20;;
20711;SDS011;10517;50.742;4.224;2023-11-21T13:50:44;1.80;;;1.50;;
20711;SDS011;10517;50.742;4.224;2023-11-21T13:53:21;2.30;;;1.50;;
20711;SDS011;10517;50.742;4.224;2023-11-21T13:55:54;2.25;;;1.92;;
20711;SDS011;10517;50.742;4.224;2023-11-21T13:58:20;6.30;;;1.85;;
20711;SDS011;10517;50.742;4.224;2023-11-21T14:01:05;3.40;;;2.42;;
20711;SDS011;10517;50.742;4.224;2023-11-21T14:03:38;8.25;;;2.30;;
20711;SDS011;10517;50.742;4.224;2023-11-21T14:06:15;3.85;;;2.17;;
20711;SDS011;10517;50.742;4.224;2023-11-21T14:08:46;4.47;;;2.10;;
20711;SDS011;10517;50.742;4.224;2023-11-21T14:11:12;2.35;;;1.67;;
20711;SDS011;10517;50.742;4.224;2023-11-21T14:13:42;3.08;;;2.03;;
20711;SDS011;10517;50.742;4.224;2023-11-21T14:16:11;2.28;;;1.70;;
20711;SDS011;10517;50.742;4.224;2023-11-21T14:18:39;2.20;;;1.23;;
20711;SDS011;10517;50.742;4.224;2023-11-21T14:21:17;1.70;;;1.33;;
20711;SDS011;10517;50.742;4.224;2023-11-21T14:23:43;4.38;;;1.35;;
20711;SDS011;10517;50.742;4.224;2023-11-21T14:26:11;3.17;;;1.73;;
20711;SDS011;10517;50.742;4.224;2023-11-21T14:28:41;2.47;;;1.83;;
20711;SDS011;10517;50.742;4.224;2023-11-21T14:31:07;1.90;;;1.67;;
20711;SDS011;10517;50.742;4.224;2023-11-21T14:33:39;1.48;;;1.15;;
20711;SDS011;10517;50.742;4.224;2023-11-21T14:36:05;3.75;;;2.25;;
20711;SDS011;10517;50.742;4.224;2023-11-21T14:38:35;1.48;;;1.10;;
20711;SDS011;10517;50.742;4.224;2023-11-21T14:41:02;2.22;;;1.27;;
20711;SDS011;10517;50.742;4.224;2023-11-21T14:43:29;2.60;;;1.75;;
20711;SDS011;10517;50.742;4.224;2023-11-21T14:45:59;2.88;;;1.63;;
20711;SDS011;10517;50.742;4.224;2023-11-21T14:48:24;6.13;;;1.70;;
20711;SDS011;10517;50.742;4.224;2023-11-21T14:51:12;2.97;;;1.90;;
20711;SDS011;10517;50.742;4.224;2023-11-21T14:53:52;3.00;;;1.38;;
20711;SDS011;10517;50.742;4.224;2023-11-21T14:56:22;1.98;;;1.70;;
20711;SDS011;10517;50.742;4.224;2023-11-21T14:58:53;3.17;;;1.60;;
20711;SDS011;10517;50.742;4.224;2023-11-21T15:01:20;5.20;;;1.70;;
20711;SDS011;10517;50.742;4.224;2023-11-21T15:04:00;1.65;;;1.27;;